METAR Data
IDs: Format: Raw Decoded Include TAF

Data at: 0749 UTC 23 Feb 2019

KJAS 230735Z AUTO 17005KT 5SM BR OVC005 14/14 A2989 RMK AO2 T01410137
KJAS 230715Z AUTO 18007KT 5SM BR OVC005 14/14 A2989 RMK AO2 T01440142
KJAS 230655Z AUTO 18006KT 5SM BR OVC005 15/15 A2989 RMK AO2 T01480147
KJAS 230635Z AUTO 18006KT 5SM BR OVC005 15/15 A2989 RMK AO2 T01510150
KJAS 230615Z AUTO 18006KT 5SM BR OVC003 15/15 A2990 RMK AO2 T01540154
KJAS 230555Z AUTO 17008KT 5SM BR OVC003 16/16 A2989 RMK AO2 T01560156
KJAS 230535Z AUTO 17006KT 5SM BR OVC003 16/16 A2990 RMK AO2 T01570157
KJAS 230515Z AUTO 16005KT 5SM BR OVC003 16/16 A2991 RMK AO2 T01580158
KJAS 230455Z AUTO 18006KT 5SM BR OVC003 16/16 A2991 RMK AO2 P0001 T01600160
KJAS 230435Z AUTO 17008KT 5SM BR OVC003 16/16 A2992 RMK AO2 P0001 T01610161
KJAS 230415Z AUTO 16006KT 4SM BR OVC003 16/16 A2992 RMK AO2 P0001 T01620162
KJAS 230355Z AUTO 14006KT 2 1/2SM BR OVC003 16/16 A2990 RMK AO2 T01550155
KJAS 230335Z AUTO 13003KT 1SM BR OVC003 14/14 A2993 RMK AO2 T01410141
KJAS 230315Z AUTO 00000KT 3/4SM BR OVC003 13/13 A2993 RMK AO2 T01340134
KJAS 230255Z AUTO 00000KT 1/2SM FG OVC003 13/13 A2993 RMK AO2 T01300130
KJAS 230235Z AUTO 00000KT 3/4SM BR OVC003 13/13 A2993 RMK AO2 T01270127
KJAS 230215Z AUTO 00000KT 1SM BR OVC003 13/13 A2993 RMK AO2 T01250125
KJAS 230155Z AUTO 00000KT 1 1/2SM BR OVC003 13/13 A2993 RMK AO2 T01250125
KJAS 230135Z AUTO 00000KT 1 3/4SM BR OVC003 12/12 A2993 RMK AO2 T01240124
KJAS 230115Z AUTO 00000KT 2SM BR OVC003 12/12 A2993 RMK AO2 T01230123
KJAS 230055Z AUTO 00000KT 2 1/2SM -RA OVC006 12/12 A2993 RMK AO2 P0001 T01220121
KJAS 230035Z AUTO 00000KT 2 1/2SM -RA OVC006 12/12 A2993 RMK AO2 P0001 T01210120
KJAS 230015Z AUTO 00000KT 2 1/2SM BR BKN004 OVC008 12/12 A2993 RMK AO2 T01210120
KJAS 222355Z AUTO 00000KT 1 1/2SM BR OVC004 12/12 A2992 RMK AO2 P0001 T01200120
KJAS 222335Z AUTO 00000KT 1SM -RA OVC004 12/12 A2991 RMK AO2 T01200118
KJAS 222315Z AUTO 00000KT 1 1/4SM -RA OVC004 12/12 A2992 RMK AO2 T01200117
KJAS 222255Z AUTO 00000KT 1 1/2SM BR OVC004 12/12 A2992 RMK AO2 T01210118
KJAS 222235Z AUTO 00000KT 1 1/2SM BR OVC004 12/12 A2993 RMK AO2 T01240120
KJAS 222215Z AUTO 00000KT 1 3/4SM BR OVC004 13/13 A2993 RMK AO2 T01310125
KJAS 222155Z AUTO 00000KT 2 1/2SM BR OVC004 13/13 A2993 RMK AO2 T01330126
KJAS 222135Z AUTO 00000KT 3SM BR OVC004 13/13 A2993 RMK AO2 T01320125
KJAS 222115Z AUTO 00000KT 2 1/2SM BR OVC004 13/13 A2993 RMK AO2 T01320125
KJAS 222055Z AUTO 07003KT 3SM BR OVC004 14/13 A2993 RMK AO2 T01350128
KJAS 222035Z AUTO 00000KT 3SM BR OVC004 13/12 A2994 RMK AO2 T01310124
KJAS 222015Z AUTO 00000KT 4SM BR OVC004 13/12 A2995 RMK AO2 T01270118
KJAS 221955Z AUTO 00000KT 5SM BR OVC004 12/11 A2996 RMK AO2 T01180111
KJAS 221935Z AUTO 00000KT 5SM BR OVC004 11/11 A2996 RMK AO2 T01130110
KJAS 221915Z AUTO 00000KT 5SM BR OVC004 12/11 A2997 RMK AO2 T01150114
KJAS 221855Z AUTO 10003KT 4SM BR OVC002 12/12 A2998 RMK AO2 T01180118
KJAS 221835Z AUTO 00000KT 2SM BR OVC002 12/12 A2999 RMK AO2 T01160116
KJAS 221815Z AUTO 00000KT 1 3/4SM BR OVC002 11/11 A3000 RMK AO2 T01120112
KJAS 221755Z AUTO 00000KT 1 1/4SM BR OVC002 11/11 A3001 RMK AO2 T01090109
KJAS 221735Z AUTO 08003KT 1SM BR OVC002 11/11 A3001 RMK AO2 T01050105
KJAS 221715Z AUTO 00000KT 3/4SM BR OVC002 10/10 A3002 RMK AO2 T01010101
KJAS 221655Z AUTO 09003KT 3/4SM BR OVC002 10/10 A3002 RMK AO2 T00970097
KJAS 221635Z AUTO 09003KT 3/4SM BR OVC002 09/09 A3001 RMK AO2 T00890089
KJAS 221615Z AUTO 08005KT 1SM BR OVC002 08/08 A3002 RMK AO2 T00830083
KJAS 221555Z AUTO 07005KT 1 1/2SM BR OVC004 08/08 A3004 RMK AO2 T00800080
KJAS 221535Z AUTO 00000KT 1 1/4SM BR OVC004 08/08 A3005 RMK AO2 T00760076
KJAS 221515Z AUTO 08003KT 1 3/4SM BR OVC004 07/07 A3004 RMK AO2 T00710071
KJAS 221455Z AUTO 06003KT 1 3/4SM BR OVC004 07/07 A3004 RMK AO2 T00670067
KJAS 221435Z AUTO 07003KT 1 1/4SM BR OVC004 06/06 A3004 RMK AO2 T00630063
KJAS 221415Z AUTO 06003KT 3/4SM BR OVC004 06/06 A3004 RMK AO2 T00600060
KJAS 221355Z AUTO 00000KT 3/4SM BR OVC004 06/06 A3005 RMK AO2 T00580058
KJAS 221335Z AUTO 00000KT 3/4SM BR OVC004 06/06 A3004 RMK AO2 T00570057
KJAS 221315Z AUTO 36003KT 1 1/4SM BR OVC004 06/06 A3004 RMK AO2 T00560056
KJAS 221255Z AUTO 00000KT 3SM BR OVC004 06/06 A3003 RMK AO2 P0001 T00550055
KJAS 221235Z AUTO 00000KT 1 3/4SM -RA OVC004 05/05 A3003 RMK AO2 P0001 T00540054
KJAS 221215Z AUTO 00000KT 1 3/4SM BR OVC004 05/05 A3002 RMK AO2 T00520052
KJAS 221155Z AUTO 04003KT 1 3/4SM BR OVC004 05/05 A3001 RMK AO2 T00510051
KJAS 221135Z AUTO 05004KT 1 3/4SM BR OVC004 05/05 A3001 RMK AO2 T00500050
KJAS 221115Z AUTO 03003KT 1 3/4SM BR OVC004 05/05 A3001 RMK AO2 T00500050
KJAS 221055Z AUTO 36003KT 1 3/4SM BR OVC004 05/05 A3001 RMK AO2 T00500050
KJAS 221035Z AUTO 04003KT 1 3/4SM BR OVC004 05/05 A3001 RMK AO2 T00500050
KJAS 221015Z AUTO 00000KT 1 3/4SM BR OVC004 05/05 A3001 RMK AO2 T00500050
KJAS 220955Z AUTO 02003KT 1 3/4SM BR OVC004 05/05 A3001 RMK AO2 T00500050
KJAS 220935Z AUTO 36004KT 2SM BR OVC004 05/05 A3000 RMK AO2 T00500050
KJAS 220915Z AUTO 00000KT 2SM BR OVC004 05/05 A3001 RMK AO2 T00500050
KJAS 220855Z AUTO 03004KT 2SM BR OVC004 05/05 A3001 RMK AO2 T00500050
KJAS 220835Z AUTO 06003KT 2 1/2SM BR OVC004 05/05 A3001 RMK AO2 T00500050
KJAS 220815Z AUTO 00000KT 2SM BR OVC004 05/05 A3001 RMK AO2 T00500050
KJAS 220755Z AUTO 35003KT 2SM BR OVC004 05/05 A3002 RMK AO2 T00500050
KJAS 220735Z AUTO 00000KT 2 1/2SM BR OVC004 05/05 A3002 RMK AO2 T00500050
KJAS 220715Z AUTO 03004KT 2 1/2SM BR OVC004 05/05 A3002 RMK AO2 T00500050
KJAS 220655Z AUTO 02003KT 2 1/2SM -DZ OVC004 05/05 A3002 RMK AO2 T00500050
KJAS 220635Z AUTO 04003KT 2 1/2SM BR OVC004 05/05 A3001 RMK AO2 T00500050
KJAS 220615Z AUTO 04005KT 2 1/2SM BR OVC004 05/05 A3001 RMK AO2 T00500050
KJAS 220555Z AUTO 05005KT 3SM BR OVC004 05/05 A3001 RMK AO2 T00500050
KJAS 220535Z AUTO 05004KT 4SM BR OVC004 05/05 A3001 RMK AO2 T00500050
KJAS 220515Z AUTO 06004KT 4SM BR OVC004 05/05 A3001 RMK AO2 T00500050
KJAS 220455Z AUTO 06005KT 4SM BR OVC004 05/05 A3001 RMK AO2 T00500050
KJAS 220435Z AUTO 05005KT 2 1/2SM BR OVC004 05/05 A3001 RMK AO2 T00510051
KJAS 220415Z AUTO 05003KT 3SM BR OVC004 05/05 A3001 RMK AO2 T00510051
KJAS 220355Z AUTO 03005KT 4SM BR OVC004 05/05 A3001 RMK AO2 T00520051
KJAS 220335Z AUTO 03004KT 4SM BR OVC004 05/05 A3001 RMK AO2 T00520051
KJAS 220315Z AUTO 05003KT 5SM BR OVC004 05/05 A3000 RMK AO2 T00520051
KJAS 220255Z AUTO 06005KT 4SM BR OVC004 05/05 A2999 RMK AO2 T00520051
KJAS 220235Z AUTO 04006KT 5SM BR OVC004 05/05 A2999 RMK AO2 T00520051
KJAS 220215Z AUTO 05006KT 4SM BR OVC004 05/05 A2999 RMK AO2 T00520051
KJAS 220155Z AUTO 04005KT 5SM BR OVC004 05/05 A2999 RMK AO2 T00520051
KJAS 220135Z AUTO 04004KT 7SM OVC004 05/05 A2999 RMK AO2 T00510050
KJAS 220115Z AUTO 04006KT 5SM BR OVC004 05/05 A2998 RMK AO2 T00510050
KJAS 220055Z AUTO 04004KT 7SM OVC004 05/05 A2999 RMK AO2 T00510050
KJAS 220035Z AUTO 04006KT 7SM OVC004 05/05 A2998 RMK AO2 T00510050
KJAS 220015Z AUTO 04007KT 5SM BR OVC004 05/05 A2998 RMK AO2 T00520051
KJAS 212355Z AUTO 03005KT 2 1/2SM BR OVC004 05/05 A2997 RMK AO2 T00530052
KJAS 212335Z AUTO 03005KT 2 1/2SM BR OVC004 05/05 A2998 RMK AO2 T00540052
KJAS 212315Z AUTO 01006KT 2SM BR OVC004 05/05 A2998 RMK AO2 T00540053
KJAS 212255Z AUTO 01007KT 2SM BR OVC004 06/05 A2998 RMK AO2 T00550054
KJAS 212235Z AUTO 02005KT 2SM BR OVC004 06/06 A2998 RMK AO2 T00550055
KJAS 212215Z AUTO 01005KT 2SM BR OVC004 06/06 A2997 RMK AO2 T00570056
KJAS 212155Z AUTO 02004KT 2SM BR OVC004 06/06 A2996 RMK AO2 T00590057
KJAS 212135Z AUTO 04006KT 2SM BR OVC004 06/06 A2995 RMK AO2 T00600059
KJAS 212115Z AUTO 04004KT 2SM BR OVC004 06/06 A2997 RMK AO2 T00620061
KJAS 212055Z AUTO 03003KT 2 1/2SM BR OVC004 06/06 A2997 RMK AO2 T00640062
KJAS 212035Z AUTO 02005KT 2 1/2SM BR OVC004 07/06 A2997 RMK AO2 T00650064
KJAS 212015Z AUTO 03004KT 2 1/2SM BR OVC004 07/07 A2997 RMK AO2 T00680066
KJAS 211955Z AUTO 05003KT 3SM BR OVC004 07/07 A2996 RMK AO2 T00720070